Time;durP1;ratioP1;P1;durP2;ratioP2;P2;SDS_P1;SDS_P2;PMS_P1;PMS_P2;Temp;Humidity;BMP_temperature;BMP_pressure;BME280_temperature;BME280_humidity;BME280_pressure;Samples;Min_cycle;Max_cycle;Signal;HPM_P1;HPM_P2
2022/07/11 00:01:10;;;;;;;;;;;;;;;13.30;100.00;90955.03;5035357;28;19958;-69
2022/07/11 00:03:35;;;;;;;;;;;;;;;13.37;100.00;90950.72;5035236;28;19975;-69
2022/07/11 00:06:01;;;;;;;;;;;;;;;13.40;100.00;90955.41;5035180;28;20015;-69
2022/07/11 00:08:26;;;;;;;;;;;;;;;13.41;100.00;90957.00;5035047;28;20010;-69
2022/07/11 00:10:53;;;;;;;;;;;;;;;13.43;100.00;90954.78;5035085;28;19913;-69
2022/07/11 00:13:18;;;;;;;;;;;;;;;13.27;100.00;90945.75;5035255;28;20351;-69
2022/07/11 00:15:43;;;;;;;;;;;;;;;13.27;100.00;90945.75;5035218;28;20422;-69
2022/07/11 00:18:09;;;;;;;;;;;;;;;13.23;100.00;90954.72;5035119;28;19995;-69
2022/07/11 00:20:34;;;;;;;;;;;;;;;13.16;100.00;90956.00;5035029;28;19913;-69
2022/07/11 00:23:00;;;;;;;;;;;;;;;13.16;100.00;90960.56;5034929;28;20349;-69
2022/07/11 00:25:25;;;;;;;;;;;;;;;13.20;100.00;90964.19;5034823;28;19921;-69
2022/07/11 00:27:50;;;;;;;;;;;;;;;13.17;100.00;90970.13;5034928;28;19920;-69
2022/07/11 00:30:16;;;;;;;;;;;;;;;13.06;100.00;90977.72;5034809;28;19952;-69
2022/07/11 00:32:41;;;;;;;;;;;;;;;12.97;100.00;90978.88;5034706;28;20308;-69
2022/07/11 00:35:07;;;;;;;;;;;;;;;12.79;100.00;90984.31;5034660;28;19913;-69
2022/07/11 00:37:32;;;;;;;;;;;;;;;12.76;100.00;90990.25;5034675;28;20306;-69
2022/07/11 00:39:59;;;;;;;;;;;;;;;12.74;100.00;90994.34;5034524;28;19975;-69
2022/07/11 00:42:24;;;;;;;;;;;;;;;12.65;100.00;90988.28;5034546;28;20303;-69
2022/07/11 00:44:50;;;;;;;;;;;;;;;12.60;100.00;90997.22;5034569;28;19920;-69
2022/07/11 00:47:15;;;;;;;;;;;;;;;12.58;100.00;91000.22;5034493;28;19913;-69
2022/07/11 00:49:40;;;;;;;;;;;;;;;12.54;100.00;91003.84;5034376;28;19913;-69
2022/07/11 00:52:06;;;;;;;;;;;;;;;12.54;100.00;90999.28;5034269;28;19913;-69
2022/07/11 00:54:31;;;;;;;;;;;;;;;12.58;100.00;90996.75;5033412;28;19948;-69
2022/07/11 00:56:57;;;;;;;;;;;;;;;12.61;100.00;90998.78;5034357;28;19951;-69
2022/07/11 00:59:22;;;;;;;;;;;;;;;12.62;100.00;90994.22;5034455;28;20312;-69
2022/07/11 01:01:47;;;;;;;;;;;;;;;12.63;100.00;90993.94;5034310;28;19913;-69
2022/07/11 01:04:13;;;;;;;;;;;;;;;12.65;100.00;90993.63;5034339;28;19917;-69
2022/07/11 01:06:38;;;;;;;;;;;;;;;12.63;100.00;90993.94;5034329;28;20438;-69
2022/07/11 01:09:03;;;;;;;;;;;;;;;12.53;100.00;90999.59;5034198;28;20020;-69
2022/07/11 01:11:29;;;;;;;;;;;;;;;12.40;100.00;90992.56;5034164;28;19940;-70
2022/07/11 01:13:54;;;;;;;;;;;;;;;12.31;100.00;91000.59;5034106;28;19913;-69
2022/07/11 01:16:24;;;;;;;;;;;;;;;12.21;100.00;90985.72;5034154;28;20007;-69
2022/07/11 01:18:52;;;;;;;;;;;;;;;12.11;100.00;90986.03;5034089;28;19916;-68
2022/07/11 01:21:26;;;;;;;;;;;;;;;12.02;100.00;90971.16;5033889;28;20379;-69
2022/07/11 01:23:52;;;;;;;;;;;;;;;11.96;100.00;90979.28;5033834;28;19923;-69
2022/07/11 01:26:18;;;;;;;;;;;;;;;12.00;100.00;90982.13;5033885;28;19963;-69
2022/07/11 01:28:44;;;;;;;;;;;;;;;11.98;100.00;90992.31;5033861;28;19921;-69
2022/07/11 01:31:10;;;;;;;;;;;;;;;12.04;100.00;90990.28;5033982;28;19920;-69
2022/07/11 01:33:36;;;;;;;;;;;;;;;12.08;100.00;90986.66;5033783;28;20390;-69
2022/07/11 01:36:04;;;;;;;;;;;;;;;12.06;100.00;90983.53;5033747;28;19913;-69
2022/07/11 01:38:29;;;;;;;;;;;;;;;12.04;100.00;90974.28;5033672;28;19913;-69
2022/07/11 01:40:55;;;;;;;;;;;;;;;12.02;100.00;90976.50;5033441;28;19913;-69
2022/07/11 01:43:21;;;;;;;;;;;;;;;12.01;100.00;90980.25;5033880;28;19913;-69
2022/07/11 01:45:49;;;;;;;;;;;;;;;11.97;100.00;90985.41;5033552;28;20394;-69
2022/07/11 01:48:14;;;;;;;;;;;;;;;11.94;100.00;90981.50;5033250;28;19916;-69
2022/07/11 01:50:40;;;;;;;;;;;;;;;11.85;100.00;90987.94;5033276;28;19920;-69
2022/07/11 01:53:05;;;;;;;;;;;;;;;11.75;100.00;90982.88;5033214;28;19913;-69
2022/07/11 01:55:30;;;;;;;;;;;;;;;11.66;100.00;90981.00;5033232;28;19913;-69
2022/07/11 01:57:56;;;;;;;;;;;;;;;11.58;100.00;90983.66;5033004;28;19963;-69
2022/07/11 02:00:21;;;;;;;;;;;;;;;11.56;100.00;90986.66;5033048;28;19920;-69
2022/07/11 02:02:46;;;;;;;;;;;;;;;11.59;100.00;90994.00;5032935;28;20271;-69
2022/07/11 02:05:12;;;;;;;;;;;;;;;11.66;100.00;90991.66;5149748;23;19928;-67
2022/07/11 02:10:21;;;;;;;;;;;;;;;11.78;100.00;90990.25;5032873;28;19971;-67
2022/07/11 02:12:46;;;;;;;;;;;;;;;11.83;100.00;90995.44;5032852;28;19913;-69
2022/07/11 02:15:12;;;;;;;;;;;;;;;11.90;100.00;90995.78;5032506;28;19913;-67
2022/07/11 02:17:37;;;;;;;;;;;;;;;11.96;100.00;90989.97;5032689;28;20007;-67
2022/07/11 02:20:03;;;;;;;;;;;;;;;11.92;100.00;90985.59;5032704;28;19917;-70
2022/07/11 02:22:29;;;;;;;;;;;;;;;11.94;100.00;90988.72;5032614;28;20334;-69
2022/07/11 02:24:55;;;;;;;;;;;;;;;11.91;100.00;91000.78;5032510;28;19917;-69
2022/07/11 02:27:20;;;;;;;;;;;;;;;11.90;100.00;91001.09;5032690;28;19913;-68
2022/07/11 02:29:45;;;;;;;;;;;;;;;11.86;100.00;90994.84;5032510;28;19913;-70
2022/07/11 02:32:11;;;;;;;;;;;;;;;11.89;100.00;90999.53;5032326;28;20056;-69
2022/07/11 02:34:37;;;;;;;;;;;;;;;11.86;100.00;90998.28;5032334;28;19920;-70
2022/07/11 02:37:02;;;;;;;;;;;;;;;11.85;100.00;91003.94;5032326;28;19920;-69
2022/07/11 02:39:27;;;;;;;;;;;;;;;11.78;100.00;91004.38;5032417;28;19920;-69
2022/07/11 02:41:53;;;;;;;;;;;;;;;11.78;100.00;91004.38;5032423;28;19923;-69
2022/07/11 02:44:19;;;;;;;;;;;;;;;11.73;100.00;91003.75;5032249;28;19956;-69
2022/07/11 02:46:45;;;;;;;;;;;;;;;11.73;100.00;91011.75;5032330;28;19917;-69
2022/07/11 02:49:10;;;;;;;;;;;;;;;11.66;100.00;91020.97;5032227;28;19935;-69
2022/07/11 02:51:35;;;;;;;;;;;;;;;11.64;100.00;91017.06;5032134;28;19967;-69
2022/07/11 02:54:01;;;;;;;;;;;;;;;11.65;100.00;91021.28;5032218;28;19913;-68
2022/07/11 02:56:27;;;;;;;;;;;;;;;11.67;100.00;91022.53;5032055;28;19913;-68
2022/07/11 02:58:52;;;;;;;;;;;;;;;11.64;100.00;91025.81;5032115;28;19920;-69
2022/07/11 03:01:19;;;;;;;;;;;;;;;11.63;100.00;91031.47;5032143;28;19913;-69
2022/07/11 03:03:45;;;;;;;;;;;;;;;11.68;100.00;91029.47;5014234;28;19917;-69
2022/07/11 03:06:11;;;;;;;;;;;;;;;11.82;100.00;91039.19;5031654;28;19917;-69
2022/07/11 03:08:36;;;;;;;;;;;;;;;11.88;100.00;91048.63;5031757;28;20338;-69
2022/07/11 03:11:01;;;;;;;;;;;;;;;11.92;100.00;91046.91;5031872;28;19920;-69
2022/07/11 03:13:27;;;;;;;;;;;;;;;12.05;100.00;91045.19;5031804;28;19913;-69
2022/07/11 03:15:52;;;;;;;;;;;;;;;12.08;100.00;91045.31;5031724;28;19913;-69
2022/07/11 03:18:17;;;;;;;;;;;;;;;12.12;100.00;91040.94;5031328;28;19913;-69
2022/07/11 03:20:43;;;;;;;;;;;;;;;12.15;100.00;91045.66;5031820;28;19952;-69
2022/07/11 03:23:08;;;;;;;;;;;;;;;12.20;100.00;91042.81;5031732;28;20389;-69
2022/07/11 03:25:33;;;;;;;;;;;;;;;12.33;100.00;91030.41;5031673;28;19917;-69
2022/07/11 03:27:59;;;;;;;;;;;;;;;12.40;100.00;91040.59;5031583;28;19920;-69
2022/07/11 03:30:24;;;;;;;;;;;;;;;12.41;100.00;91036.81;5031634;28;19924;-69
2022/07/11 03:32:49;;;;;;;;;;;;;;;12.36;100.00;91039.66;5031562;28;19916;-69
2022/07/11 03:37:59;;;;;;;;;;;;;;;12.40;100.00;91041.38;5031532;28;20008;-69
2022/07/11 03:40:24;;;;;;;;;;;;;;;12.40;100.00;91037.94;5031585;28;19917;-68
2022/07/11 03:42:49;;;;;;;;;;;;;;;12.37;100.00;91035.91;5031498;28;19955;-69
2022/07/11 03:45:15;;;;;;;;;;;;;;;12.29;100.00;91043.56;5031454;28;19967;-68
2022/07/11 03:47:40;;;;;;;;;;;;;;;12.28;100.00;91047.34;5031491;28;19920;-68
2022/07/11 03:50:05;;;;;;;;;;;;;;;12.34;100.00;91049.88;5031419;28;19960;-69
2022/07/11 03:52:32;;;;;;;;;;;;;;;12.40;100.00;91045.94;5013718;28;19913;-68
2022/07/11 03:54:57;;;;;;;;;;;;;;;12.45;100.00;91043.09;5031364;28;19913;-69
2022/07/11 03:57:22;;;;;;;;;;;;;;;12.47;100.00;91043.59;5031415;28;19920;-69
2022/07/11 03:59:47;;;;;;;;;;;;;;;12.52;100.00;91054.88;5031455;28;19913;-69
2022/07/11 04:02:13;;;;;;;;;;;;;;;12.52;100.00;91056.75;5031284;28;19917;-69
2022/07/11 04:04:38;;;;;;;;;;;;;;;12.55;100.00;91051.56;5031358;28;19917;-68
2022/07/11 04:07:04;;;;;;;;;;;;;;;12.57;100.00;91054.69;5031196;28;19921;-69
2022/07/11 04:09:29;;;;;;;;;;;;;;;12.64;100.00;91050.78;5031277;28;19936;-69
2022/07/11 04:11:54;;;;;;;;;;;;;;;12.69;100.00;91042.59;5031305;28;20356;-69
2022/07/11 04:14:20;;;;;;;;;;;;;;;12.77;100.00;91047.88;5031130;28;20378;-69
2022/07/11 04:16:45;;;;;;;;;;;;;;;12.87;100.00;91044.88;5031304;28;19913;-69
2022/07/11 04:19:10;;;;;;;;;;;;;;;12.99;100.00;91043.44;5031302;28;19943;-69
2022/07/11 04:21:36;;;;;;;;;;;;;;;13.04;100.00;91046.72;5031208;28;19920;-69
2022/07/11 04:24:01;;;;;;;;;;;;;;;13.08;100.00;91046.84;5013294;28;19913;-70
2022/07/11 04:26:26;;;;;;;;;;;;;;;13.13;100.00;91057.38;5031124;28;20007;-69
2022/07/11 04:28:51;;;;;;;;;;;;;;;13.25;100.00;91054.03;5030864;28;20379;-69
2022/07/11 04:31:17;;;;;;;;;;;;;;;13.29;100.00;91050.41;5034069;28;20031;-70
2022/07/11 04:33:42;;;;;;;;;;;;;;;13.37;100.00;91043.44;5017015;28;19971;-69
2022/07/11 04:36:07;;;;;;;;;;;;;;;13.44;100.00;91052.53;5034697;28;19952;-69
2022/07/11 04:38:33;;;;;;;;;;;;;;;13.51;100.00;91046.69;5034752;28;19917;-70
2022/07/11 04:40:58;;;;;;;;;;;;;;;13.60;100.00;91049.31;5034694;28;19917;-69
2022/07/11 04:43:23;;;;;;;;;;;;;;;13.65;100.00;91051.81;5034672;28;20333;-67
2022/07/11 04:45:49;;;;;;;;;;;;;;;13.68;100.00;91054.59;5034565;28;19913;-67
2022/07/11 04:48:15;;;;;;;;;;;;;;;13.72;100.00;91055.50;5034773;28;19924;-67
2022/07/11 04:50:44;;;;;;;;;;;;;;;13.87;100.00;91054.16;5034566;28;19913;-67
2022/07/11 04:53:10;;;;;;;;;;;;;;;13.95;100.00;91052.56;5034399;28;20358;-67
2022/07/11 04:55:37;;;;;;;;;;;;;;;14.05;100.00;91054.84;5034094;28;19944;-66
2022/07/11 04:58:02;;;;;;;;;;;;;;;14.12;100.00;91055.09;5034303;28;19913;-66
2022/07/11 05:00:28;;;;;;;;;;;;;;;14.21;100.00;91058.50;5034248;28;19913;-67
2022/07/11 05:02:55;;;;;;;;;;;;;;;14.27;100.00;91045.69;5034357;28;19976;-66
2022/07/11 05:05:21;;;;;;;;;;;;;;;14.37;100.00;91045.31;5034033;28;19920;-66
2022/07/11 05:07:47;;;;;;;;;;;;;;;14.45;100.00;91052.50;5033875;28;19924;-66
2022/07/11 05:10:12;;;;;;;;;;;;;;;14.53;100.00;91066.94;5034025;28;19913;-66
2022/07/11 05:12:37;;;;;;;;;;;;;;;14.60;100.00;91065.28;5034079;28;19913;-67
2022/07/11 05:15:03;;;;;;;;;;;;;;;14.73;100.00;91065.31;5033943;28;20370;-66
2022/07/11 05:17:28;;;;;;;;;;;;;;;14.82;100.00;91072.16;5033929;28;19960;-66
2022/07/11 05:19:54;;;;;;;;;;;;;;;14.90;100.00;91078.53;5016035;28;19963;-67
2022/07/11 05:22:19;;;;;;;;;;;;;;;14.97;100.00;91081.44;5033645;28;20012;-67
2022/07/11 05:24:45;;;;;;;;;;;;;;;15.01;100.00;91074.34;5022753;28;19921;-70
2022/07/11 05:27:10;;;;;;;;;;;;;;;15.08;100.00;91074.56;5013411;28;19914;-70
2022/07/11 05:29:35;;;;;;;;;;;;;;;15.08;100.00;91071.09;5013510;28;19914;-70
2022/07/11 05:32:00;;;;;;;;;;;;;;;15.19;100.00;91069.56;5013747;28;19920;-71
2022/07/11 05:34:26;;;;;;;;;;;;;;;15.29;100.00;91079.84;5013528;28;19919;-70
2022/07/11 05:36:52;;;;;;;;;;;;;;;15.39;100.00;91079.41;5013580;28;20073;-71
2022/07/11 05:39:17;;;;;;;;;;;;;;;15.64;100.00;91082.16;5013721;28;19914;-71
2022/07/11 05:41:43;;;;;;;;;;;;;;;15.79;100.00;91081.50;5012794;28;19918;-71
2022/07/11 05:44:08;;;;;;;;;;;;;;;15.96;100.00;91081.25;5013352;28;19968;-70
2022/07/11 05:46:36;;;;;;;;;;;;;;;16.60;100.00;91083.13;5013366;28;19918;-72
2022/07/11 05:49:01;;;;;;;;;;;;;;;19.15;83.03;91076.09;5013382;28;19913;-71
2022/07/11 05:51:26;;;;;;;;;;;;;;;20.82;67.61;91083.41;5013176;28;20000;-71
2022/07/11 05:53:51;;;;;;;;;;;;;;;21.61;62.54;91091.28;5013268;28;19913;-71
2022/07/11 05:56:17;;;;;;;;;;;;;;;22.85;58.15;91085.31;5012805;28;19920;-70
2022/07/11 05:58:42;;;;;;;;;;;;;;;22.46;58.69;91082.34;5013075;28;19941;-71
2022/07/11 06:01:08;;;;;;;;;;;;;;;23.65;55.93;91091.47;5013117;28;19975;-70
2022/07/11 06:03:33;;;;;;;;;;;;;;;23.38;53.47;91096.41;5013067;28;20454;-70
2022/07/11 06:05:59;;;;;;;;;;;;;;;23.04;53.91;91095.88;5011551;28;19917;-70
2022/07/11 06:08:42;;;;;;;;;;;;;;;23.68;54.06;91093.44;5012985;28;19922;-70
2022/07/11 06:11:13;;;;;;;;;;;;;;;23.80;53.22;91105.84;5012532;28;19960;-70
2022/07/11 06:13:39;;;;;;;;;;;;;;;24.45;50.90;91099.31;5012975;28;20346;-70
2022/07/11 06:16:05;;;;;;;;;;;;;;;24.69;50.79;91103.97;5012429;28;19918;-69
2022/07/11 06:18:30;;;;;;;;;;;;;;;25.06;49.59;91097.31;5012857;28;19913;-69
2022/07/11 06:20:55;;;;;;;;;;;;;;;24.85;49.82;91098.13;5012806;28;20342;-70
2022/07/11 06:23:21;;;;;;;;;;;;;;;24.40;50.56;91099.72;5011824;28;19917;-69
2022/07/11 06:25:46;;;;;;;;;;;;;;;24.33;49.17;91105.16;5011970;28;19913;-69
2022/07/11 06:28:11;;;;;;;;;;;;;;;23.74;50.87;91110.13;5012596;28;19976;-69
2022/07/11 06:30:37;;;;;;;;;;;;;;;24.56;47.20;91102.03;5012640;28;19913;-70
2022/07/11 06:33:03;;;;;;;;;;;;;;;24.93;46.44;91098.84;5012672;28;20357;-71
2022/07/11 06:35:28;;;;;;;;;;;;;;;25.28;45.46;91098.03;5012469;28;19917;-70
2022/07/11 06:37:54;;;;;;;;;;;;;;;25.57;46.04;91099.47;5012547;28;19924;-71
2022/07/11 06:40:19;;;;;;;;;;;;;;;27.11;44.89;91101.88;5012081;28;19996;-71
2022/07/11 06:42:45;;;;;;;;;;;;;;;27.07;44.36;91107.38;5012429;28;20011;-70
2022/07/11 06:45:10;;;;;;;;;;;;;;;25.15;43.76;91110.50;5012387;28;20402;-71
2022/07/11 06:47:35;;;;;;;;;;;;;;;25.16;44.38;91101.94;5012335;28;20008;-71
2022/07/11 06:50:01;;;;;;;;;;;;;;;27.45;42.20;91096.41;5012202;28;19917;-71
2022/07/11 06:52:26;;;;;;;;;;;;;;;28.87;38.20;91097.16;5011139;28;19914;-71
2022/07/11 06:54:51;;;;;;;;;;;;;;;28.66;37.42;91094.78;5011000;28;19992;-71
2022/07/11 06:57:17;;;;;;;;;;;;;;;26.66;40.62;91090.97;5012045;28;20371;-71
2022/07/11 06:59:42;;;;;;;;;;;;;;;26.56;40.69;91089.91;5012151;28;19913;-70
2022/07/11 07:02:07;;;;;;;;;;;;;;;27.25;40.96;91092.75;5012077;28;20438;-71
2022/07/11 07:04:33;;;;;;;;;;;;;;;28.06;39.21;91096.44;5011911;28;19953;-70
2022/07/11 07:07:00;;;;;;;;;;;;;;;27.64;40.02;91093.09;5011885;28;20383;-70
2022/07/11 07:09:26;;;;;;;;;;;;;;;28.47;39.69;91092.75;5011628;28;20465;-70
2022/07/11 07:11:51;;;;;;;;;;;;;;;27.72;39.34;91089.09;5011853;28;19975;-70
2022/07/11 07:14:16;;;;;;;;;;;;;;;27.42;38.29;91086.31;5011782;28;20391;-70
2022/07/11 07:16:42;;;;;;;;;;;;;;;27.40;39.05;91094.13;5011824;28;19968;-70
2022/07/11 07:19:07;;;;;;;;;;;;;;;27.48;38.87;91095.63;5011534;28;20287;-69
2022/07/11 07:21:32;;;;;;;;;;;;;;;26.98;39.96;91087.16;5011632;28;19971;-70
2022/07/11 07:23:58;;;;;;;;;;;;;;;26.18;39.51;91096.38;5011214;28;19924;-70
2022/07/11 07:26:23;;;;;;;;;;;;;;;25.88;40.12;91095.03;5011416;28;19924;-70
2022/07/11 07:28:49;;;;;;;;;;;;;;;26.49;39.58;91089.16;5011474;28;20381;-70
2022/07/11 07:31:14;;;;;;;;;;;;;;;26.89;38.97;91092.31;5011460;28;19920;-70
2022/07/11 07:33:40;;;;;;;;;;;;;;;26.73;39.77;91085.44;5010222;28;20004;-70
2022/07/11 07:36:05;;;;;;;;;;;;;;;27.23;41.19;91090.44;5011405;28;19924;-67
2022/07/11 07:38:31;;;;;;;;;;;;;;;26.33;41.41;91078.75;5011523;28;19917;-69
2022/07/11 07:40:56;;;;;;;;;;;;;;;26.85;39.24;91084.94;4993499;28;19948;-68
2022/07/11 07:43:27;;;;;;;;;;;;;;;27.28;40.77;91089.97;5011614;28;19917;-69
2022/07/11 07:45:52;;;;;;;;;;;;;;;28.24;38.38;91090.69;5011248;28;19914;-71
2022/07/11 07:48:18;;;;;;;;;;;;;;;27.82;38.06;91086.63;5011425;28;19924;-70
2022/07/11 07:50:43;;;;;;;;;;;;;;;27.28;38.17;91084.50;5011263;28;19925;-71
2022/07/11 07:53:09;;;;;;;;;;;;;;;27.62;38.51;91087.25;5011430;28;19917;-69
2022/07/11 07:55:35;;;;;;;;;;;;;;;28.81;36.16;91084.34;5010900;28;19920;-69
2022/07/11 07:58:00;;;;;;;;;;;;;;;28.07;36.52;91087.03;5011434;28;19996;-70
2022/07/11 08:03:10;;;;;;;;;;;;;;;25.96;40.67;91093.81;5011349;28;19945;-69
2022/07/11 08:05:35;;;;;;;;;;;;;;;28.88;36.14;91089.75;5013168;28;19914;-69
2022/07/11 08:08:01;;;;;;;;;;;;;;;25.01;39.80;91090.31;4995587;28;20279;-67
2022/07/11 08:10:26;;;;;;;;;;;;;;;24.92;37.94;91095.38;4994960;28;20339;-69
2022/07/11 08:12:52;;;;;;;;;;;;;;;25.62;36.35;91087.38;4995557;28;19972;-69
2022/07/11 08:15:17;;;;;;;;;;;;;;;26.52;36.33;91086.44;4995398;28;20280;-69
2022/07/11 08:17:42;;;;;;;;;;;;;;;27.00;36.74;91088.34;4995435;28;20348;-69
2022/07/11 08:20:08;;;;;;;;;;;;;;;27.99;35.59;91082.88;4995426;28;19920;-69
2022/07/11 08:22:33;;;;;;;;;;;;;;;28.19;36.08;91089.22;4995418;28;19918;-69
2022/07/11 08:24:59;;;;;;;;;;;;;;;27.19;37.80;91091.66;4994869;28;20307;-68
2022/07/11 08:27:24;;;;;;;;;;;;;;;29.23;35.49;91091.06;4995333;28;19913;-69
2022/07/11 08:29:50;;;;;;;;;;;;;;;30.93;32.50;91096.88;4995265;28;20343;-71
2022/07/11 08:32:15;;;;;;;;;;;;;;;31.52;31.40;91084.72;4995284;28;20399;-67
2022/07/11 08:34:40;;;;;;;;;;;;;;;31.82;30.57;91103.53;4994830;28;19913;-68
2022/07/11 08:37:06;;;;;;;;;;;;;;;32.13;31.95;91086.53;4995220;28;19914;-67
2022/07/11 08:39:31;;;;;;;;;;;;;;;31.16;32.41;91085.66;4994745;28;19914;-69
2022/07/11 08:41:57;;;;;;;;;;;;;;;30.91;32.50;91077.25;4995095;28;19945;-68
2022/07/11 08:44:23;;;;;;;;;;;;;;;26.83;36.85;91083.81;4994968;28;20363;-68
2022/07/11 08:46:49;;;;;;;;;;;;;;;24.23;38.82;91089.59;4995028;28;19918;-70
2022/07/11 08:49:14;;;;;;;;;;;;;;;26.23;37.05;91085.84;4994949;28;19914;-67
2022/07/11 08:51:41;;;;;;;;;;;;;;;27.39;36.00;91081.66;4994983;28;19913;-68
2022/07/11 08:54:06;;;;;;;;;;;;;;;28.82;36.30;91081.19;4994443;28;20010;-67
2022/07/11 08:56:32;;;;;;;;;;;;;;;29.35;33.86;91092.41;4995722;28;19926;-68
2022/07/11 08:59:02;;;;;;;;;;;;;;;26.41;38.95;91083.00;4994766;28;19960;-67
2022/07/11 09:01:32;;;;;;;;;;;;;;;26.56;37.38;91086.38;4994837;28;19945;-67
2022/07/11 09:03:58;;;;;;;;;;;;;;;26.63;35.52;91089.03;4994668;28;19920;-67
2022/07/11 09:06:23;;;;;;;;;;;;;;;26.59;36.20;91074.66;5002578;28;19917;-68
2022/07/11 09:08:49;;;;;;;;;;;;;;;27.12;35.51;91078.84;5013737;28;19924;-68
2022/07/11 09:11:14;;;;;;;;;;;;;;;26.24;36.76;91076.47;5014190;28;20056;-69
2022/07/11 09:13:40;;;;;;;;;;;;;;;26.53;34.61;91087.97;5014078;28;19921;-67
2022/07/11 09:16:07;;;;;;;;;;;;;;;25.04;35.82;91086.03;5013254;28;19917;-67
2022/07/11 09:18:34;;;;;;;;;;;;;;;25.24;37.47;91087.13;5014070;28;19913;-67
2022/07/11 09:26:36;;;;;;;;;;;;;;;28.64;31.57;91080.72;5014276;28;19924;-68
2022/07/11 09:29:08;;;;;;;;;;;;;;;27.60;32.32;91081.38;5013794;28;19921;-68
2022/07/11 09:31:34;;;;;;;;;;;;;;;27.11;31.98;91083.53;5013539;28;20422;-68
2022/07/11 09:34:04;;;;;;;;;;;;;;;27.69;31.95;91089.13;5013653;28;20437;-67
2022/07/11 09:36:36;;;;;;;;;;;;;;;27.22;34.56;91090.84;5013990;28;19917;-67
2022/07/11 09:39:03;;;;;;;;;;;;;;;27.10;34.19;91092.91;5013408;28;19921;-68
2022/07/11 09:41:33;;;;;;;;;;;;;;;26.36;33.37;91093.59;5013545;28;20283;-67
2022/07/11 09:44:15;;;;;;;;;;;;;;;26.84;33.96;91088.88;5013456;28;19913;-67
2022/07/11 09:46:42;;;;;;;;;;;;;;;25.75;34.56;91093.94;5013557;28;20311;-67
2022/07/11 09:49:07;;;;;;;;;;;;;;;25.75;34.39;91095.91;5013404;28;19956;-68
2022/07/11 09:51:33;;;;;;;;;;;;;;;26.06;33.91;91096.88;5013438;28;20004;-67
2022/07/11 09:53:59;;;;;;;;;;;;;;;27.52;32.20;91096.34;5012549;28;19924;-68
2022/07/11 09:56:25;;;;;;;;;;;;;;;26.64;34.79;91103.47;5013356;28;19914;-68
2022/07/11 09:59:00;;;;;;;;;;;;;;;27.99;31.94;91083.66;5013237;28;19914;-69
2022/07/11 10:01:26;;;;;;;;;;;;;;;28.20;33.90;91090.75;5013149;28;19953;-67
2022/07/11 10:03:52;;;;;;;;;;;;;;;26.93;34.22;91091.09;5013162;28;19913;-68
2022/07/11 10:06:17;;;;;;;;;;;;;;;27.77;33.61;91096.03;5013014;28;19924;-69
2022/07/11 10:08:42;;;;;;;;;;;;;;;28.47;33.96;91082.56;5012597;28;19920;-68
2022/07/11 10:11:11;;;;;;;;;;;;;;;29.52;31.03;91096.81;5012899;28;20276;-69
2022/07/11 10:13:37;;;;;;;;;;;;;;;27.33;32.36;91089.53;5012807;28;19917;-70
2022/07/11 10:16:06;;;;;;;;;;;;;;;27.69;32.90;91095.38;5012885;28;19928;-70
2022/07/11 10:18:35;;;;;;;;;;;;;;;27.45;33.21;91101.88;5012862;28;20000;-71
2022/07/11 10:21:00;;;;;;;;;;;;;;;27.26;35.51;91088.84;5012804;28;19913;-71
2022/07/11 10:23:26;;;;;;;;;;;;;;;28.70;32.66;91091.97;5011002;28;20007;-69
2022/07/11 10:26:10;;;;;;;;;;;;;;;26.93;34.10;91095.78;5012759;28;19914;-69
2022/07/11 10:28:44;;;;;;;;;;;;;;;27.45;35.18;91090.94;5011704;28;19917;-68
2022/07/11 10:31:23;;;;;;;;;;;;;;;24.34;36.51;91087.69;5012731;28;19917;-69
2022/07/11 10:34:04;;;;;;;;;;;;;;;26.23;36.42;91095.97;5012555;28;19913;-69
2022/07/11 10:36:31;;;;;;;;;;;;;;;27.12;35.27;91092.50;5012878;28;19913;-65
2022/07/11 10:39:14;;;;;;;;;;;;;;;27.46;33.69;91108.91;5012575;28;20375;-65
2022/07/11 10:41:40;;;;;;;;;;;;;;;26.64;35.86;91092.53;5012538;28;19921;-65
2022/07/11 10:44:05;;;;;;;;;;;;;;;27.70;35.08;91096.91;5012392;28;19917;-66
2022/07/11 10:46:30;;;;;;;;;;;;;;;27.87;32.83;91089.66;5012548;28;19921;-64
2022/07/11 10:48:56;;;;;;;;;;;;;;;28.48;33.13;91097.03;5012446;28;20311;-64
2022/07/11 10:51:44;;;;;;;;;;;;;;;27.89;33.62;91097.47;5012539;28;19913;-64
2022/07/11 10:54:15;;;;;;;;;;;;;;;28.27;32.40;91098.13;5011928;28;20488;-64
2022/07/11 10:57:07;;;;;;;;;;;;;;;27.27;33.00;91091.16;5012290;28;20288;-63
2022/07/11 10:59:32;;;;;;;;;;;;;;;28.19;33.79;91094.69;4989570;28;19913;-64
2022/07/11 11:02:04;;;;;;;;;;;;;;;28.78;33.56;91085.97;5012363;28;19913;-63
2022/07/11 11:04:48;;;;;;;;;;;;;;;27.56;36.80;91093.56;4994191;28;19944;-64
2022/07/11 11:07:32;;;;;;;;;;;;;;;27.52;33.96;91090.09;5011772;28;19973;-63
2022/07/11 11:09:58;;;;;;;;;;;;;;;25.84;34.61;91101.66;5012036;28;19913;-63
2022/07/11 11:12:42;;;;;;;;;;;;;;;26.14;37.84;91099.16;5012018;28;19913;-63
2022/07/11 11:15:26;;;;;;;;;;;;;;;27.80;34.13;91083.53;5011963;28;20003;-64
2022/07/11 11:17:51;;;;;;;;;;;;;;;27.76;34.83;91091.75;5011978;28;19944;-64
2022/07/11 11:20:33;;;;;;;;;;;;;;;27.23;35.68;91093.16;5012011;28;19965;-62
2022/07/11 11:23:08;;;;;;;;;;;;;;;26.44;37.87;91086.88;5011972;28;20788;-63
2022/07/11 11:25:34;;;;;;;;;;;;;;;25.48;37.47;91090.16;5012218;28;19960;-63
2022/07/11 11:28:03;;;;;;;;;;;;;;;26.14;37.79;91082.00;5012063;28;19949;-64
2022/07/11 11:30:29;;;;;;;;;;;;;;;26.97;35.96;91075.44;5011913;28;19917;-64
2022/07/11 11:32:54;;;;;;;;;;;;;;;26.17;36.22;91081.97;5011836;28;19968;-63
2022/07/11 11:35:20;;;;;;;;;;;;;;;25.01;38.31;91081.38;5011693;28;19914;-63
2022/07/11 11:37:45;;;;;;;;;;;;;;;24.79;37.34;91086.09;5011882;28;20426;-63
2022/07/11 11:40:12;;;;;;;;;;;;;;;25.01;38.42;91089.56;5011489;28;19968;-64
2022/07/11 11:42:38;;;;;;;;;;;;;;;25.56;37.99;91092.47;5011808;28;19981;-64
2022/07/11 11:45:07;;;;;;;;;;;;;;;26.17;37.07;91092.09;5011866;28;19918;-64
2022/07/11 11:47:32;;;;;;;;;;;;;;;27.16;35.94;91087.78;5011818;28;20367;-64
2022/07/11 11:49:57;;;;;;;;;;;;;;;27.23;36.48;91084.97;5011728;28;19963;-64
2022/07/11 11:52:24;;;;;;;;;;;;;;;27.23;36.37;91084.19;5011771;28;20418;-64
2022/07/11 11:54:53;;;;;;;;;;;;;;;25.88;35.97;91075.19;5011559;28;19928;-63
2022/07/11 11:57:20;;;;;;;;;;;;;;;25.93;36.98;91086.44;5011733;28;20315;-63
2022/07/11 11:59:45;;;;;;;;;;;;;;;25.60;36.33;91084.25;5011729;28;20367;-64
2022/07/11 12:02:10;;;;;;;;;;;;;;;24.98;37.65;91088.38;5011736;28;19913;-63
2022/07/11 12:04:36;;;;;;;;;;;;;;;26.27;37.49;91083.09;5011797;28;19920;-64
2022/07/11 12:07:03;;;;;;;;;;;;;;;25.98;38.30;91086.00;5011411;28;19917;-64
2022/07/11 12:09:46;;;;;;;;;;;;;;;26.76;36.83;91081.91;5011664;28;19919;-64
2022/07/11 12:14:56;;;;;;;;;;;;;;;27.05;36.25;91076.19;5028435;28;20369;-64
2022/07/11 12:17:25;;;;;;;;;;;;;;;25.92;36.73;91070.50;5036866;28;19917;-63
2022/07/11 12:19:51;;;;;;;;;;;;;;;25.61;36.01;91070.25;5048188;28;19916;-64
2022/07/11 12:22:16;;;;;;;;;;;;;;;25.38;37.70;91080.84;5049467;28;20303;-64
2022/07/11 12:24:46;;;;;;;;;;;;;;;26.47;36.04;91075.16;5036397;28;19921;-64
2022/07/11 12:27:11;;;;;;;;;;;;;;;25.37;37.34;91074.63;5021704;28;19941;-65
2022/07/11 12:29:40;;;;;;;;;;;;;;;25.68;37.49;91069.44;5011083;28;20288;-64
2022/07/11 12:32:12;;;;;;;;;;;;;;;26.85;35.33;91076.00;5011222;28;19913;-65
2022/07/11 12:34:38;;;;;;;;;;;;;;;26.19;36.80;91078.84;5011065;28;19917;-64
2022/07/11 12:37:08;;;;;;;;;;;;;;;26.45;35.59;91075.56;5011251;28;19914;-63
2022/07/11 12:39:35;;;;;;;;;;;;;;;25.49;37.05;91075.38;5011198;28;19913;-64
2022/07/11 12:42:01;;;;;;;;;;;;;;;25.27;37.40;91074.69;5011249;28;19913;-63
2022/07/11 12:47:10;;;;;;;;;;;;;;;26.82;35.27;91080.28;5011240;28;19920;-64
2022/07/11 12:49:36;;;;;;;;;;;;;;;26.29;35.51;91064.38;5011291;28;19917;-63
2022/07/11 12:52:01;;;;;;;;;;;;;;;25.94;36.10;91059.94;5013577;28;20387;-64
2022/07/11 12:54:33;;;;;;;;;;;;;;;26.04;36.75;91082.88;5014356;28;20303;-64
2022/07/11 12:57:01;;;;;;;;;;;;;;;25.97;37.38;91076.28;5014807;28;19919;-63
2022/07/11 12:59:27;;;;;;;;;;;;;;;26.11;35.31;91075.41;5014573;28;20012;-64